Zim Yokohama — A8MY4 — position and weather

sailwx.info

Track history (hours):
 
Tides and Currents Weather Stations Pressure Air Temp Water Temp Dewpoint Dewpoint Depression Visibility Wind Speed Wind Dir Waves Ship Positions

Zim Yokohama

Last reported at 2017-Sep-16 14:44 UTC. Time now 2017-Sep-21 09:02 UTC.
Position N 01°15' E 104°09'.

Length 260 m; draft 12.1 m.

Type: Cargo ship. MMSI: 636013436.

Date/timePositionNaut miles runAvg speedWind from/ knotsBaromVisibWave heightAir tempDewpointWater temp
2017-Sep-16 14:44N 01°15' E 104°09'415.2
2017-Sep-16 14:28N 01°15' E 104°04'715.1
2017-Sep-16 14:00N 01°14' E 103°57'715.0
2017-Sep-16 13:30N 01°11' E 103°51'714.5
2017-Sep-16 13:00N 01°07' E 103°45'713.5
2017-Sep-16 12:30N 01°03' E 103°39'713.2
2017-Sep-16 12:01N 01°06' E 103°33'813.3
2017-Sep-16 11:23N 01°10' E 103°26'513.2
2017-Sep-16 10:58N 01°13' E 103°22'613.1
2017-Sep-16 10:31N 01°17' E 103°17'  
Track history (hours):
 
Tides and Currents Weather Stations Pressure Air Temp Water Temp Dewpoint Dewpoint Depression Visibility Wind Speed Wind Dir Waves Ship Positions

Zim Yokohama

Last reported at 2017-Sep-16 14:44 UTC. Time now 2017-Sep-21 09:02 UTC.
Position N 01°15' E 104°09'.

Length 260 m; draft 12.1 m.

Type: Cargo ship. MMSI: 636013436.

Date/timePositionNaut miles runAvg speedWind from/ knotsBaromVisibWave heightAir tempDewpointWater temp
2017-Sep-16 14:44N 01°15' E 104°09'415.2
2017-Sep-16 14:28N 01°15' E 104°04'715.1
2017-Sep-16 14:00N 01°14' E 103°57'715.0
2017-Sep-16 13:30N 01°11' E 103°51'714.5
2017-Sep-16 13:00N 01°07' E 103°45'713.5
2017-Sep-16 12:30N 01°03' E 103°39'713.2
2017-Sep-16 12:01N 01°06' E 103°33'813.3
2017-Sep-16 11:23N 01°10' E 103°26'513.2
2017-Sep-16 10:58N 01°13' E 103°22'613.1
2017-Sep-16 10:31N 01°17' E 103°17'  

Dump ship's entire track history